sensor_id;sensor_type;location;lat;lon;timestamp;P1;durP1;ratioP1;P2;durP2;ratioP2
55090;SDS011;40985;53.180;5.800;2023-03-14T00:01:57;26.65;;;3.15;;
55090;SDS011;40985;53.180;5.800;2023-03-14T00:04:22;17.35;;;3.45;;
55090;SDS011;40985;53.180;5.800;2023-03-14T00:06:48;22.58;;;3.20;;
55090;SDS011;40985;53.180;5.800;2023-03-14T00:09:14;23.63;;;3.05;;
55090;SDS011;40985;53.180;5.800;2023-03-14T00:11:41;21.88;;;1.90;;
55090;SDS011;40985;53.180;5.800;2023-03-14T00:14:06;27.05;;;2.45;;
55090;SDS011;40985;53.180;5.800;2023-03-14T00:16:32;25.75;;;2.92;;
55090;SDS011;40985;53.180;5.800;2023-03-14T00:18:58;17.77;;;2.35;;
55090;SDS011;40985;53.180;5.800;2023-03-14T00:21:24;28.20;;;2.65;;
55090;SDS011;40985;53.180;5.800;2023-03-14T00:23:51;21.60;;;3.17;;
55090;SDS011;40985;53.180;5.800;2023-03-14T00:26:17;17.40;;;1.65;;
55090;SDS011;40985;53.180;5.800;2023-03-14T00:28:45;17.55;;;1.40;;
55090;SDS011;40985;53.180;5.800;2023-03-14T00:31:13;19.20;;;2.10;;
55090;SDS011;40985;53.180;5.800;2023-03-14T00:33:40;26.23;;;2.55;;
55090;SDS011;40985;53.180;5.800;2023-03-14T00:36:07;15.20;;;1.55;;
55090;SDS011;40985;53.180;5.800;2023-03-14T00:38:34;20.95;;;1.70;;
55090;SDS011;40985;53.180;5.800;2023-03-14T00:41:08;17.27;;;1.20;;
55090;SDS011;40985;53.180;5.800;2023-03-14T00:43:36;22.63;;;1.90;;
55090;SDS011;40985;53.180;5.800;2023-03-14T00:46:02;16.60;;;1.90;;
55090;SDS011;40985;53.180;5.800;2023-03-14T00:48:28;23.30;;;2.53;;
55090;SDS011;40985;53.180;5.800;2023-03-14T00:50:54;18.75;;;3.35;;
55090;SDS011;40985;53.180;5.800;2023-03-14T00:53:20;22.45;;;2.65;;
55090;SDS011;40985;53.180;5.800;2023-03-14T00:55:46;19.80;;;3.72;;
55090;SDS011;40985;53.180;5.800;2023-03-14T00:58:14;18.23;;;3.00;;
55090;SDS011;40985;53.180;5.800;2023-03-14T01:00:41;22.15;;;2.10;;
55090;SDS011;40985;53.180;5.800;2023-03-14T01:03:08;20.77;;;2.40;;
55090;SDS011;40985;53.180;5.800;2023-03-14T01:05:38;20.73;;;2.50;;
55090;SDS011;40985;53.180;5.800;2023-03-14T01:08:04;26.08;;;2.22;;
55090;SDS011;40985;53.180;5.800;2023-03-14T01:10:31;24.27;;;3.15;;
55090;SDS011;40985;53.180;5.800;2023-03-14T01:12:57;18.75;;;1.92;;
55090;SDS011;40985;53.180;5.800;2023-03-14T01:15:23;21.90;;;3.10;;
55090;SDS011;40985;53.180;5.800;2023-03-14T01:17:49;20.08;;;1.90;;
55090;SDS011;40985;53.180;5.800;2023-03-14T01:20:15;25.67;;;2.60;;
55090;SDS011;40985;53.180;5.800;2023-03-14T01:22:41;19.70;;;1.65;;
55090;SDS011;40985;53.180;5.800;2023-03-14T01:25:09;15.65;;;1.90;;
55090;SDS011;40985;53.180;5.800;2023-03-14T01:27:36;19.98;;;1.60;;
55090;SDS011;40985;53.180;5.800;2023-03-14T01:30:02;27.13;;;2.45;;
55090;SDS011;40985;53.180;5.800;2023-03-14T01:32:28;22.17;;;2.17;;
55090;SDS011;40985;53.180;5.800;2023-03-14T01:34:54;23.55;;;2.08;;
55090;SDS011;40985;53.180;5.800;2023-03-14T01:37:20;18.80;;;1.92;;
55090;SDS011;40985;53.180;5.800;2023-03-14T01:39:48;23.27;;;1.90;;
55090;SDS011;40985;53.180;5.800;2023-03-14T01:42:15;19.45;;;1.77;;
55090;SDS011;40985;53.180;5.800;2023-03-14T01:44:51;25.13;;;2.45;;
55090;SDS011;40985;53.180;5.800;2023-03-14T01:47:18;27.55;;;2.58;;
55090;SDS011;40985;53.180;5.800;2023-03-14T01:49:45;19.55;;;1.83;;
55090;SDS011;40985;53.180;5.800;2023-03-14T01:52:16;26.60;;;3.17;;
55090;SDS011;40985;53.180;5.800;2023-03-14T01:54:51;19.63;;;1.85;;
55090;SDS011;40985;53.180;5.800;2023-03-14T01:57:22;25.20;;;2.80;;
55090;SDS011;40985;53.180;5.800;2023-03-14T02:00:04;19.15;;;2.22;;
55090;SDS011;40985;53.180;5.800;2023-03-14T02:02:36;23.70;;;1.98;;
55090;SDS011;40985;53.180;5.800;2023-03-14T02:05:04;23.58;;;2.33;;
55090;SDS011;40985;53.180;5.800;2023-03-14T02:10:14;17.77;;;1.95;;
55090;SDS011;40985;53.180;5.800;2023-03-14T02:12:44;22.20;;;2.22;;
55090;SDS011;40985;53.180;5.800;2023-03-14T02:15:11;18.95;;;1.85;;
55090;SDS011;40985;53.180;5.800;2023-03-14T02:17:36;20.25;;;2.38;;
55090;SDS011;40985;53.180;5.800;2023-03-14T02:22:46;22.90;;;2.47;;
55090;SDS011;40985;53.180;5.800;2023-03-14T02:27:56;22.73;;;2.08;;
55090;SDS011;40985;53.180;5.800;2023-03-14T02:30:24;23.33;;;2.25;;
55090;SDS011;40985;53.180;5.800;2023-03-14T02:32:55;18.83;;;1.83;;
55090;SDS011;40985;53.180;5.800;2023-03-14T02:35:29;24.38;;;3.67;;
55090;SDS011;40985;53.180;5.800;2023-03-14T02:40:28;23.45;;;2.50;;
55090;SDS011;40985;53.180;5.800;2023-03-14T02:42:54;21.45;;;1.92;;
55090;SDS011;40985;53.180;5.800;2023-03-14T02:47:47;24.35;;;2.65;;
55090;SDS011;40985;53.180;5.800;2023-03-14T02:50:20;22.45;;;2.28;;
55090;SDS011;40985;53.180;5.800;2023-03-14T02:52:49;28.02;;;3.47;;
55090;SDS011;40985;53.180;5.800;2023-03-14T02:55:19;27.20;;;3.55;;
55090;SDS011;40985;53.180;5.800;2023-03-14T02:57:46;20.08;;;2.17;;
55090;SDS011;40985;53.180;5.800;2023-03-14T03:00:11;33.38;;;3.95;;
55090;SDS011;40985;53.180;5.800;2023-03-14T03:02:37;29.45;;;2.80;;
55090;SDS011;40985;53.180;5.800;2023-03-14T03:05:03;25.25;;;2.75;;
55090;SDS011;40985;53.180;5.800;2023-03-14T03:07:29;28.48;;;3.28;;
55090;SDS011;40985;53.180;5.800;2023-03-14T03:09:55;28.92;;;3.67;;
55090;SDS011;40985;53.180;5.800;2023-03-14T03:12:20;30.70;;;5.00;;
55090;SDS011;40985;53.180;5.800;2023-03-14T03:14:46;31.30;;;2.53;;
55090;SDS011;40985;53.180;5.800;2023-03-14T03:17:11;32.58;;;3.30;;
55090;SDS011;40985;53.180;5.800;2023-03-14T03:19:37;29.95;;;3.38;;
55090;SDS011;40985;53.180;5.800;2023-03-14T03:22:03;31.30;;;3.95;;
55090;SDS011;40985;53.180;5.800;2023-03-14T03:24:29;32.45;;;3.33;;
55090;SDS011;40985;53.180;5.800;2023-03-14T03:26:55;34.00;;;3.22;;
55090;SDS011;40985;53.180;5.800;2023-03-14T03:29:20;28.63;;;3.53;;
55090;SDS011;40985;53.180;5.800;2023-03-14T03:31:46;32.05;;;5.63;;
55090;SDS011;40985;53.180;5.800;2023-03-14T03:34:12;34.28;;;4.45;;
55090;SDS011;40985;53.180;5.800;2023-03-14T03:36:38;39.97;;;3.83;;
55090;SDS011;40985;53.180;5.800;2023-03-14T03:39:04;35.35;;;4.63;;
55090;SDS011;40985;53.180;5.800;2023-03-14T03:41:30;39.65;;;4.95;;
55090;SDS011;40985;53.180;5.800;2023-03-14T03:43:56;29.50;;;4.97;;
55090;SDS011;40985;53.180;5.800;2023-03-14T03:46:22;39.70;;;3.75;;
55090;SDS011;40985;53.180;5.800;2023-03-14T03:48:48;35.03;;;5.30;;
55090;SDS011;40985;53.180;5.800;2023-03-14T03:51:18;39.45;;;4.50;;
55090;SDS011;40985;53.180;5.800;2023-03-14T03:53:44;36.20;;;4.07;;
55090;SDS011;40985;53.180;5.800;2023-03-14T03:56:09;36.03;;;4.45;;
55090;SDS011;40985;53.180;5.800;2023-03-14T03:58:35;39.17;;;4.13;;
55090;SDS011;40985;53.180;5.800;2023-03-14T04:01:03;31.60;;;3.40;;
55090;SDS011;40985;53.180;5.800;2023-03-14T04:03:31;40.40;;;4.45;;
55090;SDS011;40985;53.180;5.800;2023-03-14T04:06:08;33.08;;;3.53;;
55090;SDS011;40985;53.180;5.800;2023-03-14T04:08:35;37.20;;;3.78;;
55090;SDS011;40985;53.180;5.800;2023-03-14T04:11:02;27.15;;;3.50;;
55090;SDS011;40985;53.180;5.800;2023-03-14T04:13:28;33.00;;;4.70;;
55090;SDS011;40985;53.180;5.800;2023-03-14T04:15:54;29.92;;;4.22;;
55090;SDS011;40985;53.180;5.800;2023-03-14T04:18:20;37.63;;;3.60;;
55090;SDS011;40985;53.180;5.800;2023-03-14T04:20:50;36.80;;;3.28;;
55090;SDS011;40985;53.180;5.800;2023-03-14T04:23:17;43.03;;;4.03;;
55090;SDS011;40985;53.180;5.800;2023-03-14T04:25:42;34.28;;;4.28;;
55090;SDS011;40985;53.180;5.800;2023-03-14T04:28:08;41.67;;;4.60;;
55090;SDS011;40985;53.180;5.800;2023-03-14T04:30:34;33.60;;;4.05;;
55090;SDS011;40985;53.180;5.800;2023-03-14T04:32:59;36.38;;;3.33;;
55090;SDS011;40985;53.180;5.800;2023-03-14T04:35:25;24.08;;;3.28;;
55090;SDS011;40985;53.180;5.800;2023-03-14T04:37:51;27.27;;;3.17;;
55090;SDS011;40985;53.180;5.800;2023-03-14T04:40:17;30.77;;;3.13;;
55090;SDS011;40985;53.180;5.800;2023-03-14T04:42:43;30.75;;;4.07;;
55090;SDS011;40985;53.180;5.800;2023-03-14T04:45:09;27.90;;;4.38;;
55090;SDS011;40985;53.180;5.800;2023-03-14T04:47:35;24.70;;;2.85;;
55090;SDS011;40985;53.180;5.800;2023-03-14T04:50:00;20.80;;;2.03;;
55090;SDS011;40985;53.180;5.800;2023-03-14T04:52:26;20.55;;;2.70;;
55090;SDS011;40985;53.180;5.800;2023-03-14T04:54:52;14.77;;;2.05;;
55090;SDS011;40985;53.180;5.800;2023-03-14T04:57:18;22.80;;;3.45;;
55090;SDS011;40985;53.180;5.800;2023-03-14T04:59:44;19.60;;;3.45;;
55090;SDS011;40985;53.180;5.800;2023-03-14T05:02:09;25.98;;;2.60;;
55090;SDS011;40985;53.180;5.800;2023-03-14T05:04:35;22.80;;;1.98;;
55090;SDS011;40985;53.180;5.800;2023-03-14T05:07:00;18.33;;;2.45;;
55090;SDS011;40985;53.180;5.800;2023-03-14T05:09:26;19.27;;;2.28;;
55090;SDS011;40985;53.180;5.800;2023-03-14T05:11:52;15.75;;;2.17;;
55090;SDS011;40985;53.180;5.800;2023-03-14T05:14:18;17.48;;;2.38;;
55090;SDS011;40985;53.180;5.800;2023-03-14T05:16:43;17.98;;;2.20;;
55090;SDS011;40985;53.180;5.800;2023-03-14T05:19:10;17.20;;;2.78;;
55090;SDS011;40985;53.180;5.800;2023-03-14T05:21:36;10.55;;;1.73;;
55090;SDS011;40985;53.180;5.800;2023-03-14T05:24:02;16.15;;;2.45;;
55090;SDS011;40985;53.180;5.800;2023-03-14T05:26:28;16.17;;;2.53;;
55090;SDS011;40985;53.180;5.800;2023-03-14T05:28:54;13.63;;;1.60;;
55090;SDS011;40985;53.180;5.800;2023-03-14T05:31:19;15.15;;;1.70;;
55090;SDS011;40985;53.180;5.800;2023-03-14T05:33:45;12.70;;;1.70;;
55090;SDS011;40985;53.180;5.800;2023-03-14T05:36:11;15.10;;;1.58;;
55090;SDS011;40985;53.180;5.800;2023-03-14T05:38:37;13.57;;;2.17;;
55090;SDS011;40985;53.180;5.800;2023-03-14T05:41:03;18.50;;;2.58;;
55090;SDS011;40985;53.180;5.800;2023-03-14T05:43:28;10.75;;;1.83;;
55090;SDS011;40985;53.180;5.800;2023-03-14T05:45:54;13.25;;;1.92;;
55090;SDS011;40985;53.180;5.800;2023-03-14T05:48:20;9.43;;;0.35;;
55090;SDS011;40985;53.180;5.800;2023-03-14T05:50:46;9.18;;;0.35;;
55090;SDS011;40985;53.180;5.800;2023-03-14T05:53:13;5.20;;;0.30;;
55090;SDS011;40985;53.180;5.800;2023-03-14T05:55:39;7.13;;;1.13;;
55090;SDS011;40985;53.180;5.800;2023-03-14T05:58:06;7.68;;;0.32;;
55090;SDS011;40985;53.180;5.800;2023-03-14T06:00:32;8.50;;;0.30;;
55090;SDS011;40985;53.180;5.800;2023-03-14T06:02:57;10.93;;;0.40;;
55090;SDS011;40985;53.180;5.800;2023-03-14T06:05:23;11.57;;;0.40;;
55090;SDS011;40985;53.180;5.800;2023-03-14T06:07:49;15.73;;;1.10;;
55090;SDS011;40985;53.180;5.800;2023-03-14T06:10:15;17.77;;;0.50;;
55090;SDS011;40985;53.180;5.800;2023-03-14T06:12:40;13.18;;;0.40;;
55090;SDS011;40985;53.180;5.800;2023-03-14T06:15:06;15.88;;;0.60;;
55090;SDS011;40985;53.180;5.800;2023-03-14T06:17:32;13.38;;;0.57;;
55090;SDS011;40985;53.180;5.800;2023-03-14T06:19:58;16.83;;;0.52;;
55090;SDS011;40985;53.180;5.800;2023-03-14T06:22:27;18.02;;;1.38;;
55090;SDS011;40985;53.180;5.800;2023-03-14T06:24:52;13.05;;;0.30;;
55090;SDS011;40985;53.180;5.800;2023-03-14T06:27:18;12.10;;;0.55;;
55090;SDS011;40985;53.180;5.800;2023-03-14T06:29:44;9.55;;;0.35;;
55090;SDS011;40985;53.180;5.800;2023-03-14T06:32:09;6.85;;;0.30;;
55090;SDS011;40985;53.180;5.800;2023-03-14T06:34:35;13.60;;;0.52;;
55090;SDS011;40985;53.180;5.800;2023-03-14T06:37:01;8.80;;;0.30;;
55090;SDS011;40985;53.180;5.800;2023-03-14T06:39:26;6.93;;;0.45;;
55090;SDS011;40985;53.180;5.800;2023-03-14T06:41:52;5.35;;;0.55;;
55090;SDS011;40985;53.180;5.800;2023-03-14T06:44:18;8.82;;;0.57;;
55090;SDS011;40985;53.180;5.800;2023-03-14T06:46:43;9.20;;;0.17;;
55090;SDS011;40985;53.180;5.800;2023-03-14T06:49:09;9.07;;;0.20;;
55090;SDS011;40985;53.180;5.800;2023-03-14T06:51:35;4.70;;;0.20;;
55090;SDS011;40985;53.180;5.800;2023-03-14T06:54:00;8.75;;;1.55;;
55090;SDS011;40985;53.180;5.800;2023-03-14T06:56:26;5.72;;;0.20;;
55090;SDS011;40985;53.180;5.800;2023-03-14T06:58:52;4.05;;;0.52;;
55090;SDS011;40985;53.180;5.800;2023-03-14T07:01:22;4.95;;;0.20;;
55090;SDS011;40985;53.180;5.800;2023-03-14T07:03:50;8.68;;;0.20;;
55090;SDS011;40985;53.180;5.800;2023-03-14T07:06:16;4.80;;;0.15;;
55090;SDS011;40985;53.180;5.800;2023-03-14T07:08:42;6.63;;;0.20;;
55090;SDS011;40985;53.180;5.800;2023-03-14T07:11:08;11.55;;;0.95;;
55090;SDS011;40985;53.180;5.800;2023-03-14T07:13:36;6.72;;;0.20;;
55090;SDS011;40985;53.180;5.800;2023-03-14T07:16:02;8.82;;;0.50;;
55090;SDS011;40985;53.180;5.800;2023-03-14T07:18:28;4.43;;;0.30;;
55090;SDS011;40985;53.180;5.800;2023-03-14T07:20:54;11.98;;;0.50;;
55090;SDS011;40985;53.180;5.800;2023-03-14T07:23:20;9.35;;;0.50;;
55090;SDS011;40985;53.180;5.800;2023-03-14T07:25:46;7.78;;;0.50;;
55090;SDS011;40985;53.180;5.800;2023-03-14T07:28:12;12.20;;;0.20;;
55090;SDS011;40985;53.180;5.800;2023-03-14T07:30:38;9.60;;;0.65;;
55090;SDS011;40985;53.180;5.800;2023-03-14T07:33:03;6.30;;;0.73;;
55090;SDS011;40985;53.180;5.800;2023-03-14T07:35:29;8.45;;;0.20;;
55090;SDS011;40985;53.180;5.800;2023-03-14T07:37:55;4.55;;;0.38;;
55090;SDS011;40985;53.180;5.800;2023-03-14T07:40:20;6.70;;;0.30;;
55090;SDS011;40985;53.180;5.800;2023-03-14T07:42:46;11.30;;;0.40;;
55090;SDS011;40985;53.180;5.800;2023-03-14T07:45:12;13.70;;;1.90;;
55090;SDS011;40985;53.180;5.800;2023-03-14T07:47:40;9.45;;;0.85;;
55090;SDS011;40985;53.180;5.800;2023-03-14T07:50:06;15.48;;;0.75;;
55090;SDS011;40985;53.180;5.800;2023-03-14T07:52:33;12.38;;;0.40;;
55090;SDS011;40985;53.180;5.800;2023-03-14T07:54:58;15.93;;;0.50;;
55090;SDS011;40985;53.180;5.800;2023-03-14T07:57:24;14.90;;;0.80;;
55090;SDS011;40985;53.180;5.800;2023-03-14T07:59:50;16.15;;;0.70;;
55090;SDS011;40985;53.180;5.800;2023-03-14T08:02:16;13.68;;;0.90;;
55090;SDS011;40985;53.180;5.800;2023-03-14T08:04:43;18.40;;;0.88;;
55090;SDS011;40985;53.180;5.800;2023-03-14T08:07:08;13.45;;;0.70;;
55090;SDS011;40985;53.180;5.800;2023-03-14T08:09:34;17.23;;;1.05;;
55090;SDS011;40985;53.180;5.800;2023-03-14T08:12:00;20.05;;;1.02;;
55090;SDS011;40985;53.180;5.800;2023-03-14T08:14:26;19.05;;;1.38;;
55090;SDS011;40985;53.180;5.800;2023-03-14T08:16:54;15.70;;;1.02;;
55090;SDS011;40985;53.180;5.800;2023-03-14T08:19:19;17.60;;;1.15;;
55090;SDS011;40985;53.180;5.800;2023-03-14T08:21:48;16.80;;;0.80;;
55090;SDS011;40985;53.180;5.800;2023-03-14T08:24:14;16.33;;;1.27;;
55090;SDS011;40985;53.180;5.800;2023-03-14T08:26:40;17.23;;;1.05;;
55090;SDS011;40985;53.180;5.800;2023-03-14T08:29:05;11.25;;;1.35;;
55090;SDS011;40985;53.180;5.800;2023-03-14T08:31:33;20.70;;;1.77;;
55090;SDS011;40985;53.180;5.800;2023-03-14T08:34:00;20.90;;;1.45;;
55090;SDS011;40985;53.180;5.800;2023-03-14T08:36:27;11.15;;;1.42;;
55090;SDS011;40985;53.180;5.800;2023-03-14T08:38:53;19.42;;;2.30;;
55090;SDS011;40985;53.180;5.800;2023-03-14T08:41:19;9.55;;;1.00;;
55090;SDS011;40985;53.180;5.800;2023-03-14T08:43:44;14.05;;;1.52;;
55090;SDS011;40985;53.180;5.800;2023-03-14T08:46:10;17.30;;;2.28;;
55090;SDS011;40985;53.180;5.800;2023-03-14T08:48:36;19.50;;;1.05;;
55090;SDS011;40985;53.180;5.800;2023-03-14T08:51:08;23.65;;;2.35;;
55090;SDS011;40985;53.180;5.800;2023-03-14T08:53:38;21.17;;;1.55;;
55090;SDS011;40985;53.180;5.800;2023-03-14T08:56:05;20.35;;;3.17;;
55090;SDS011;40985;53.180;5.800;2023-03-14T08:58:31;22.45;;;2.05;;
55090;SDS011;40985;53.180;5.800;2023-03-14T09:00:58;25.38;;;2.05;;
55090;SDS011;40985;53.180;5.800;2023-03-14T09:03:24;21.13;;;1.33;;
55090;SDS011;40985;53.180;5.800;2023-03-14T09:05:50;13.52;;;0.63;;
55090;SDS011;40985;53.180;5.800;2023-03-14T09:08:16;20.50;;;1.20;;
55090;SDS011;40985;53.180;5.800;2023-03-14T09:10:42;19.33;;;1.13;;
55090;SDS011;40985;53.180;5.800;2023-03-14T09:13:08;19.33;;;1.48;;
55090;SDS011;40985;53.180;5.800;2023-03-14T09:15:34;17.88;;;0.70;;
55090;SDS011;40985;53.180;5.800;2023-03-14T09:17:59;16.80;;;1.85;;
55090;SDS011;40985;53.180;5.800;2023-03-14T09:20:25;20.67;;;1.60;;
55090;SDS011;40985;53.180;5.800;2023-03-14T09:22:51;19.90;;;1.70;;
55090;SDS011;40985;53.180;5.800;2023-03-14T09:25:17;23.45;;;1.88;;
55090;SDS011;40985;53.180;5.800;2023-03-14T09:27:42;18.77;;;1.63;;
55090;SDS011;40985;53.180;5.800;2023-03-14T09:30:08;22.52;;;1.95;;
55090;SDS011;40985;53.180;5.800;2023-03-14T09:32:34;17.15;;;1.30;;
55090;SDS011;40985;53.180;5.800;2023-03-14T09:35:01;30.65;;;2.05;;
55090;SDS011;40985;53.180;5.800;2023-03-14T09:37:29;21.25;;;0.93;;
55090;SDS011;40985;53.180;5.800;2023-03-14T09:39:55;18.45;;;1.50;;
55090;SDS011;40985;53.180;5.800;2023-03-14T09:42:22;24.38;;;1.73;;
55090;SDS011;40985;53.180;5.800;2023-03-14T09:44:54;19.73;;;1.30;;
55090;SDS011;40985;53.180;5.800;2023-03-14T09:47:24;16.45;;;1.13;;
55090;SDS011;40985;53.180;5.800;2023-03-14T09:49:51;15.90;;;1.02;;
55090;SDS011;40985;53.180;5.800;2023-03-14T09:52:22;15.85;;;1.35;;
55090;SDS011;40985;53.180;5.800;2023-03-14T09:54:52;15.60;;;2.03;;
55090;SDS011;40985;53.180;5.800;2023-03-14T09:57:24;15.70;;;1.63;;
55090;SDS011;40985;53.180;5.800;2023-03-14T09:59:51;12.27;;;1.15;;
55090;SDS011;40985;53.180;5.800;2023-03-14T10:02:28;16.65;;;0.98;;
55090;SDS011;40985;53.180;5.800;2023-03-14T10:04:59;12.90;;;1.23;;
55090;SDS011;40985;53.180;5.800;2023-03-14T10:07:31;15.95;;;0.70;;
55090;SDS011;40985;53.180;5.800;2023-03-14T10:09:58;15.60;;;0.82;;
55090;SDS011;40985;53.180;5.800;2023-03-14T10:12:34;16.23;;;1.75;;
55090;SDS011;40985;53.180;5.800;2023-03-14T10:15:12;14.73;;;1.08;;
55090;SDS011;40985;53.180;5.800;2023-03-14T10:17:49;12.20;;;0.70;;
55090;SDS011;40985;53.180;5.800;2023-03-14T10:25:35;11.95;;;0.47;;
55090;SDS011;40985;53.180;5.800;2023-03-14T10:28:02;7.97;;;0.40;;
55090;SDS011;40985;53.180;5.800;2023-03-14T10:33:11;11.15;;;0.80;;
55090;SDS011;40985;53.180;5.800;2023-03-14T10:35:52;10.80;;;0.82;;
55090;SDS011;40985;53.180;5.800;2023-03-14T10:38:30;14.50;;;1.23;;
55090;SDS011;40985;53.180;5.800;2023-03-14T10:41:00;14.80;;;0.63;;
55090;SDS011;40985;53.180;5.800;2023-03-14T10:43:33;15.75;;;1.20;;
55090;SDS011;40985;53.180;5.800;2023-03-14T10:46:02;7.13;;;0.90;;
55090;SDS011;40985;53.180;5.800;2023-03-14T10:48:38;9.18;;;1.02;;
55090;SDS011;40985;53.180;5.800;2023-03-14T10:51:11;15.00;;;1.50;;
55090;SDS011;40985;53.180;5.800;2023-03-14T10:53:49;7.80;;;0.30;;
55090;SDS011;40985;53.180;5.800;2023-03-14T10:56:27;3.08;;;0.20;;
55090;SDS011;40985;53.180;5.800;2023-03-14T10:58:59;5.18;;;0.20;;
55090;SDS011;40985;53.180;5.800;2023-03-14T11:07:20;3.90;;;0.50;;
55090;SDS011;40985;53.180;5.800;2023-03-14T11:14:59;6.35;;;0.52;;
55090;SDS011;40985;53.180;5.800;2023-03-14T11:17:33;7.85;;;0.35;;
55090;SDS011;40985;53.180;5.800;2023-03-14T11:30:33;5.00;;;0.52;;
55090;SDS011;40985;53.180;5.800;2023-03-14T11:33:18;7.53;;;0.40;;
55090;SDS011;40985;53.180;5.800;2023-03-14T11:41:23;8.32;;;0.65;;
55090;SDS011;40985;53.180;5.800;2023-03-14T11:43:58;8.38;;;0.77;;
55090;SDS011;40985;53.180;5.800;2023-03-14T11:46:34;11.07;;;0.60;;
55090;SDS011;40985;53.180;5.800;2023-03-14T11:51:49;9.57;;;0.90;;
55090;SDS011;40985;53.180;5.800;2023-03-14T11:54:24;5.55;;;0.30;;
55090;SDS011;40985;53.180;5.800;2023-03-14T11:56:59;5.25;;;1.08;;
55090;SDS011;40985;53.180;5.800;2023-03-14T12:10:39;7.35;;;0.50;;
55090;SDS011;40985;53.180;5.800;2023-03-14T12:13:13;8.45;;;1.13;;
55090;SDS011;40985;53.180;5.800;2023-03-14T12:15:41;8.70;;;0.43;;
55090;SDS011;40985;53.180;5.800;2023-03-14T12:18:19;6.15;;;0.40;;
55090;SDS011;40985;53.180;5.800;2023-03-14T12:20:55;4.68;;;0.30;;
55090;SDS011;40985;53.180;5.800;2023-03-14T12:23:26;6.38;;;0.60;;
55090;SDS011;40985;53.180;5.800;2023-03-14T12:28:43;2.47;;;0.10;;
55090;SDS011;40985;53.180;5.800;2023-03-14T12:34:24;5.43;;;0.28;;
55090;SDS011;40985;53.180;5.800;2023-03-14T12:39:40;9.30;;;0.32;;
55090;SDS011;40985;53.180;5.800;2023-03-14T12:50:53;9.93;;;0.70;;
55090;SDS011;40985;53.180;5.800;2023-03-14T12:53:15;7.13;;;0.40;;
55090;SDS011;40985;53.180;5.800;2023-03-14T13:04:25;4.45;;;0.30;;
55090;SDS011;40985;53.180;5.800;2023-03-14T13:06:59;7.88;;;0.75;;
55090;SDS011;40985;53.180;5.800;2023-03-14T13:12:00;7.03;;;0.30;;
55090;SDS011;40985;53.180;5.800;2023-03-14T13:14:35;6.78;;;0.30;;
55090;SDS011;40985;53.180;5.800;2023-03-14T13:17:02;6.47;;;0.30;;
55090;SDS011;40985;53.180;5.800;2023-03-14T13:19:28;6.15;;;0.35;;
55090;SDS011;40985;53.180;5.800;2023-03-14T13:22:03;6.53;;;0.40;;
55090;SDS011;40985;53.180;5.800;2023-03-14T13:24:33;9.27;;;0.40;;
55090;SDS011;40985;53.180;5.800;2023-03-14T13:26:59;3.33;;;0.30;;
55090;SDS011;40985;53.180;5.800;2023-03-14T13:29:27;2.97;;;0.40;;
55090;SDS011;40985;53.180;5.800;2023-03-14T13:31:57;6.97;;;0.45;;
55090;SDS011;40985;53.180;5.800;2023-03-14T13:34:28;7.35;;;0.63;;
55090;SDS011;40985;53.180;5.800;2023-03-14T13:36:58;5.40;;;0.30;;
55090;SDS011;40985;53.180;5.800;2023-03-14T13:39:25;6.18;;;0.40;;
55090;SDS011;40985;53.180;5.800;2023-03-14T13:41:54;6.43;;;0.50;;
55090;SDS011;40985;53.180;5.800;2023-03-14T13:44:27;5.30;;;0.32;;
55090;SDS011;40985;53.180;5.800;2023-03-14T13:47:02;3.88;;;0.20;;
55090;SDS011;40985;53.180;5.800;2023-03-14T13:49:31;6.13;;;0.30;;
55090;SDS011;40985;53.180;5.800;2023-03-14T13:52:00;4.65;;;0.30;;
55090;SDS011;40985;53.180;5.800;2023-03-14T13:54:27;5.97;;;0.38;;
55090;SDS011;40985;53.180;5.800;2023-03-14T13:57:00;5.82;;;0.30;;
55090;SDS011;40985;53.180;5.800;2023-03-14T13:59:27;3.55;;;0.30;;
55090;SDS011;40985;53.180;5.800;2023-03-14T14:01:59;6.55;;;0.40;;
55090;SDS011;40985;53.180;5.800;2023-03-14T14:04:28;6.60;;;0.20;;
55090;SDS011;40985;53.180;5.800;2023-03-14T14:06:58;8.30;;;0.20;;
55090;SDS011;40985;53.180;5.800;2023-03-14T14:16:56;5.22;;;0.30;;
55090;SDS011;40985;53.180;5.800;2023-03-14T14:19:24;6.40;;;0.30;;
55090;SDS011;40985;53.180;5.800;2023-03-14T14:21:53;4.95;;;0.70;;
55090;SDS011;40985;53.180;5.800;2023-03-14T14:24:20;6.22;;;0.35;;
55090;SDS011;40985;53.180;5.800;2023-03-14T14:26:54;7.63;;;0.47;;
55090;SDS011;40985;53.180;5.800;2023-03-14T14:29:29;7.20;;;0.45;;
55090;SDS011;40985;53.180;5.800;2023-03-14T14:32:00;4.47;;;0.40;;
55090;SDS011;40985;53.180;5.800;2023-03-14T14:35:06;7.30;;;0.30;;
55090;SDS011;40985;53.180;5.800;2023-03-14T14:37:26;8.50;;;0.30;;
55090;SDS011;40985;53.180;5.800;2023-03-14T14:40:00;10.48;;;0.68;;
55090;SDS011;40985;53.180;5.800;2023-03-14T14:42:33;9.23;;;0.47;;
55090;SDS011;40985;53.180;5.800;2023-03-14T14:44:58;9.95;;;0.45;;
55090;SDS011;40985;53.180;5.800;2023-03-14T14:47:27;8.10;;;0.77;;
55090;SDS011;40985;53.180;5.800;2023-03-14T14:49:54;9.00;;;0.47;;
55090;SDS011;40985;53.180;5.800;2023-03-14T14:52:31;5.95;;;0.30;;
55090;SDS011;40985;53.180;5.800;2023-03-14T14:55:13;8.25;;;0.50;;
55090;SDS011;40985;53.180;5.800;2023-03-14T14:57:48;8.60;;;0.68;;
55090;SDS011;40985;53.180;5.800;2023-03-14T15:00:22;4.85;;;0.30;;
55090;SDS011;40985;53.180;5.800;2023-03-14T15:02:50;6.65;;;0.40;;
55090;SDS011;40985;53.180;5.800;2023-03-14T15:05:19;7.03;;;0.45;;
55090;SDS011;40985;53.180;5.800;2023-03-14T15:07:48;6.75;;;0.60;;
55090;SDS011;40985;53.180;5.800;2023-03-14T15:10:16;9.05;;;0.30;;
55090;SDS011;40985;53.180;5.800;2023-03-14T15:12:43;5.22;;;0.32;;
55090;SDS011;40985;53.180;5.800;2023-03-14T15:15:10;6.05;;;0.30;;
55090;SDS011;40985;53.180;5.800;2023-03-14T15:17:37;4.28;;;0.25;;
55090;SDS011;40985;53.180;5.800;2023-03-14T15:20:04;11.00;;;0.95;;
55090;SDS011;40985;53.180;5.800;2023-03-14T15:22:34;11.13;;;0.80;;
55090;SDS011;40985;53.180;5.800;2023-03-14T15:25:00;7.93;;;0.50;;
55090;SDS011;40985;53.180;5.800;2023-03-14T15:27:26;9.15;;;0.30;;
55090;SDS011;40985;53.180;5.800;2023-03-14T15:29:55;9.27;;;0.47;;
55090;SDS011;40985;53.180;5.800;2023-03-14T15:32:21;11.13;;;0.40;;
55090;SDS011;40985;53.180;5.800;2023-03-14T15:34:47;9.40;;;0.32;;
55090;SDS011;40985;53.180;5.800;2023-03-14T15:37:14;8.02;;;0.47;;
55090;SDS011;40985;53.180;5.800;2023-03-14T15:39:42;7.38;;;0.50;;
55090;SDS011;40985;53.180;5.800;2023-03-14T15:42:08;9.90;;;0.43;;
55090;SDS011;40985;53.180;5.800;2023-03-14T15:44:34;6.32;;;1.25;;
55090;SDS011;40985;53.180;5.800;2023-03-14T15:47:00;6.18;;;0.70;;
55090;SDS011;40985;53.180;5.800;2023-03-14T15:49:26;13.35;;;0.40;;
55090;SDS011;40985;53.180;5.800;2023-03-14T15:51:52;6.15;;;0.60;;
55090;SDS011;40985;53.180;5.800;2023-03-14T15:54:18;6.25;;;0.35;;
55090;SDS011;40985;53.180;5.800;2023-03-14T15:56:44;6.57;;;0.40;;
55090;SDS011;40985;53.180;5.800;2023-03-14T15:59:10;6.50;;;0.40;;
55090;SDS011;40985;53.180;5.800;2023-03-14T16:01:35;6.13;;;0.35;;
55090;SDS011;40985;53.180;5.800;2023-03-14T16:04:01;8.43;;;0.60;;
55090;SDS011;40985;53.180;5.800;2023-03-14T16:06:27;7.90;;;0.20;;
55090;SDS011;40985;53.180;5.800;2023-03-14T16:08:53;7.25;;;0.45;;
55090;SDS011;40985;53.180;5.800;2023-03-14T16:11:19;9.73;;;1.13;;
55090;SDS011;40985;53.180;5.800;2023-03-14T16:13:45;8.23;;;0.30;;
55090;SDS011;40985;53.180;5.800;2023-03-14T16:16:11;11.50;;;0.30;;
55090;SDS011;40985;53.180;5.800;2023-03-14T16:18:37;6.63;;;0.47;;
55090;SDS011;40985;53.180;5.800;2023-03-14T16:21:05;6.22;;;0.73;;